createdAt,value
2022-08-05T00:00:35.319Z,22102.94
2022-08-05T00:03:15.641Z,22082.63
2022-08-05T00:06:06.450Z,22109.03
2022-08-05T00:08:34.624Z,22088.72
2022-08-05T00:11:28.080Z,22074.47
2022-08-05T00:13:58.860Z,22107.00
2022-08-05T00:16:36.365Z,22107.00
2022-08-05T00:19:15.481Z,22102.94
2022-08-05T00:21:43.506Z,22092.78
2022-08-05T00:24:18.996Z,22119.22
2022-08-05T00:26:54.059Z,22054.13
2022-08-05T00:29:25.525Z,22062.28
2022-08-05T00:32:13.413Z,22037.88
2022-08-05T00:35:04.538Z,21999.25
2022-08-05T00:37:51.285Z,21993.13
2022-08-05T00:40:28.045Z,21936.19
2022-08-05T00:43:00.558Z,21956.53
2022-08-05T00:45:42.930Z,21899.59
2022-08-05T00:48:14.506Z,21926.03
2022-08-05T00:50:46.575Z,21885.38
2022-08-05T00:54:00.001Z,21883.31
2022-08-05T00:56:05.513Z,21834.53
2022-08-05T00:58:37.700Z,21824.34
2022-08-05T01:01:09.036Z,21822.31
2022-08-05T01:03:38.052Z,21834.53
2022-08-05T01:06:06.839Z,21791.81
2022-08-05T01:08:44.269Z,21869.09
2022-08-05T01:11:22.163Z,21842.66
2022-08-05T01:14:08.710Z,21842.66
2022-08-05T01:16:49.039Z,21808.09
2022-08-05T01:20:01.822Z,21765.38
2022-08-05T01:22:47.002Z,21775.56
2022-08-05T01:25:58.995Z,21802.00
2022-08-05T01:28:36.304Z,21802.00
2022-08-05T01:31:13.045Z,21869.09
2022-08-05T01:33:53.760Z,21783.69
2022-08-05T01:36:28.637Z,21771.50
2022-08-05T01:39:00.395Z,21806.06
2022-08-05T01:41:35.576Z,21777.59
2022-08-05T01:44:09.723Z,21741.00
2022-08-05T01:46:43.111Z,21747.09
2022-08-05T01:49:24.357Z,21751.16
2022-08-05T01:51:59.791Z,21791.81
2022-08-05T01:54:45.884Z,21751.16
2022-08-05T01:58:12.462Z,21702.34
2022-08-05T02:00:11.926Z,21753.19
2022-08-05T02:02:54.467Z,21826.41
2022-08-05T02:05:29.277Z,21810.13
2022-08-05T02:08:01.249Z,21749.13
2022-08-05T02:10:38.039Z,21738.97
2022-08-05T02:13:16.587Z,21669.81
2022-08-05T02:15:51.904Z,21667.78
2022-08-05T02:18:31.818Z,21616.97
2022-08-05T02:21:15.103Z,21708.47
2022-08-05T02:23:47.615Z,21684.06
2022-08-05T02:26:24.400Z,21643.38
2022-08-05T02:28:58.236Z,21659.66
2022-08-05T02:31:35.028Z,21635.25
2022-08-05T02:34:10.104Z,21594.59
2022-08-05T02:36:46.571Z,21576.28
2022-08-05T02:39:21.424Z,21574.25
2022-08-05T02:42:00.457Z,21531.56
2022-08-05T02:44:31.810Z,21545.78
2022-08-05T02:47:02.890Z,21541.72
2022-08-05T02:49:37.909Z,21492.94
2022-08-05T02:52:29.677Z,21513.25
2022-08-05T02:55:02.084Z,21560.03
2022-08-05T02:58:12.295Z,21537.66
2022-08-05T03:00:26.122Z,21509.19
2022-08-05T03:02:59.768Z,21480.72
2022-08-05T03:06:56.226Z,21501.06
2022-08-05T03:08:19.591Z,21529.53
2022-08-05T03:11:55.692Z,21484.78
2022-08-05T03:13:52.019Z,21460.41
2022-08-05T03:16:31.746Z,21419.72
2022-08-05T03:19:01.378Z,21442.09
2022-08-05T03:21:41.612Z,21427.88
2022-08-05T03:24:30.228Z,21417.69
2022-08-05T03:26:59.681Z,21436.00
2022-08-05T03:29:45.837Z,21482.75
2022-08-05T03:32:17.616Z,21423.81
2022-08-05T03:34:50.474Z,21399.41
2022-08-05T03:37:21.707Z,21446.16
2022-08-05T03:40:01.626Z,21425.84
2022-08-05T03:42:41.667Z,21423.81
2022-08-05T03:45:21.490Z,21405.50
2022-08-05T03:47:51.727Z,21468.53
2022-08-05T03:50:30.190Z,21415.66
2022-08-05T03:54:59.276Z,21379.06
2022-08-05T03:56:11.002Z,21415.66
2022-08-05T03:58:46.913Z,21431.94
2022-08-05T04:01:20.820Z,21395.34
2022-08-05T04:04:09.179Z,21444.13
2022-08-05T04:06:47.428Z,21482.75
2022-08-05T04:09:25.860Z,21460.41
2022-08-05T04:11:56.791Z,21492.94
2022-08-05T04:14:30.437Z,21482.75
2022-08-05T04:17:00.914Z,21478.69
2022-08-05T04:19:31.823Z,21472.59
2022-08-05T04:22:08.561Z,21539.69
2022-08-05T04:24:44.025Z,21533.59
2022-08-05T04:27:14.152Z,21494.97
2022-08-05T04:29:43.858Z,21592.56
2022-08-05T04:32:13.332Z,21549.84
2022-08-05T04:34:43.752Z,21562.06
2022-08-05T04:37:13.196Z,21604.75
2022-08-05T04:39:41.442Z,21663.72
2022-08-05T04:42:10.327Z,21659.66
2022-08-05T04:44:39.136Z,21684.06
2022-08-05T04:47:08.817Z,21736.94
2022-08-05T04:50:01.308Z,21710.50
2022-08-05T04:52:28.995Z,21692.19
2022-08-05T04:54:57.973Z,21696.25
2022-08-05T04:57:37.298Z,21704.38
2022-08-05T05:00:06.810Z,21694.22
2022-08-05T05:02:41.813Z,21671.84
2022-08-05T05:05:16.706Z,21684.06
2022-08-05T05:08:01.489Z,21924.00
2022-08-05T05:10:30.861Z,22196.50
2022-08-05T05:13:03.975Z,22462.91
2022-08-05T05:15:57.437Z,22493.41
2022-08-05T05:18:28.720Z,22566.63
2022-08-05T05:21:01.509Z,22497.47
2022-08-05T05:24:02.029Z,22432.41
2022-08-05T05:26:19.330Z,22269.69
2022-08-05T05:28:47.407Z,22145.66
2022-08-05T05:31:15.634Z,22037.88
2022-08-05T05:33:59.551Z,21976.88
2022-08-05T05:36:30.084Z,21936.19
2022-08-05T05:38:59.771Z,21928.06
2022-08-05T05:41:39.977Z,21934.16
2022-08-05T05:44:35.525Z,21915.88
2022-08-05T05:46:58.028Z,21954.50
2022-08-05T05:49:26.650Z,21964.66
2022-08-05T05:51:54.910Z,21956.53
2022-08-05T05:54:35.471Z,21907.72
2022-08-05T05:57:13.851Z,21970.78
2022-08-05T05:59:47.371Z,21972.81
2022-08-05T06:02:17.357Z,22052.09
2022-08-05T06:05:01.283Z,22111.09
2022-08-05T06:07:41.391Z,22139.56
2022-08-05T06:10:12.661Z,22192.44
2022-08-05T06:12:42.298Z,22231.06
2022-08-05T06:15:16.395Z,22137.50
2022-08-05T06:17:54.578Z,22094.81
2022-08-05T06:20:23.115Z,22098.88
2022-08-05T06:22:51.213Z,22017.53
2022-08-05T06:25:59.040Z,21978.91
2022-08-05T06:28:12.353Z,21938.22
2022-08-05T06:30:49.714Z,21897.56
2022-08-05T06:33:19.535Z,21842.66
2022-08-05T06:36:03.731Z,21806.06
2022-08-05T06:38:37.679Z,21704.38
2022-08-05T06:41:07.906Z,21529.53
2022-08-05T06:43:57.742Z,21468.53
2022-08-05T06:46:30.174Z,21444.13
2022-08-05T06:48:59.723Z,21438.03
2022-08-05T06:51:30.928Z,21405.50
2022-08-05T06:54:01.986Z,21413.63
2022-08-05T06:56:34.833Z,21368.91
2022-08-05T06:59:04.006Z,21395.34
2022-08-05T07:01:40.736Z,21427.88
2022-08-05T07:04:10.887Z,21476.66
2022-08-05T07:06:42.208Z,21555.97
2022-08-05T07:09:10.238Z,21633.22
2022-08-05T07:11:40.057Z,21661.69
2022-08-05T07:14:29.479Z,21665.75
2022-08-05T07:17:59.397Z,21657.63
2022-08-05T07:20:34.025Z,21755.22
2022-08-05T07:22:38.792Z,21804.03
2022-08-05T07:25:53.943Z,21850.78
2022-08-05T07:28:03.825Z,21936.19
2022-08-05T07:30:38.166Z,21954.50
2022-08-05T07:33:10.411Z,22005.34
2022-08-05T07:36:01.878Z,21946.38
2022-08-05T07:38:43.328Z,22021.59
2022-08-05T07:42:14.488Z,22033.81
2022-08-05T07:44:14.336Z,22090.75
2022-08-05T07:46:49.269Z,22111.09
2022-08-05T07:49:18.957Z,22218.84
2022-08-05T07:51:52.982Z,22127.34
2022-08-05T07:54:31.169Z,22111.09
2022-08-05T07:57:14.538Z,22163.94
2022-08-05T07:59:53.660Z,22133.44
2022-08-05T08:02:31.378Z,22200.56
2022-08-05T08:05:15.084Z,22346.97
2022-08-05T08:07:59.762Z,22371.38
2022-08-05T08:10:29.273Z,22405.97
2022-08-05T08:12:58.770Z,22430.38
2022-08-05T08:16:34.531Z,22469.00
2022-08-05T08:18:20.932Z,22416.13
2022-08-05T08:21:02.548Z,22442.56
2022-08-05T08:24:02.399Z,22442.56
2022-08-05T08:26:29.453Z,22430.38
2022-08-05T08:29:09.775Z,22391.72
2022-08-05T08:31:50.096Z,22330.72
2022-08-05T08:34:18.961Z,22296.13
2022-08-05T08:37:04.617Z,22405.97
2022-08-05T08:39:37.519Z,22538.16
2022-08-05T08:42:34.127Z,22548.31
2022-08-05T08:45:18.348Z,22566.63
2022-08-05T08:48:11.778Z,22440.53
2022-08-05T08:51:03.615Z,22302.25
2022-08-05T08:53:44.359Z,22216.81
2022-08-05T08:56:13.733Z,22202.59
2022-08-05T08:58:48.583Z,22117.19
2022-08-05T09:01:18.400Z,22123.28
2022-08-05T09:03:55.611Z,22125.31
2022-08-05T09:06:30.056Z,22229.03
2022-08-05T09:09:01.647Z,22342.91
2022-08-05T09:11:52.940Z,22363.25
2022-08-05T09:14:59.129Z,22483.25
2022-08-05T09:17:39.919Z,22473.06
2022-08-05T09:20:05.162Z,22458.84
2022-08-05T09:23:09.216Z,22501.53
2022-08-05T09:26:01.419Z,22586.97
2022-08-05T09:28:31.509Z,22670.34
2022-08-05T09:31:22.571Z,22670.34
2022-08-05T09:33:58.499Z,22674.41
2022-08-05T09:36:45.741Z,22692.72
2022-08-05T09:39:27.709Z,22690.69
2022-08-05T09:42:11.416Z,22706.97
2022-08-05T09:44:50.567Z,22731.38
2022-08-05T09:47:22.275Z,22755.78
2022-08-05T09:50:01.297Z,22755.78
2022-08-05T09:52:34.823Z,22743.56
2022-08-05T09:55:56.749Z,22910.34
2022-08-05T09:57:58.662Z,22871.72
2022-08-05T10:00:29.600Z,23032.38
2022-08-05T10:02:59.365Z,23256.13
2022-08-05T10:05:32.740Z,23164.59
2022-08-05T10:08:35.000Z,23313.09
2022-08-05T10:10:54.912Z,23286.66
2022-08-05T10:13:47.386Z,23345.66
2022-08-05T10:16:41.553Z,23323.28
2022-08-05T10:19:13.618Z,23378.19
2022-08-05T10:21:42.135Z,23412.78
2022-08-05T10:24:13.959Z,23331.41
2022-08-05T10:26:49.098Z,23315.13
2022-08-05T10:29:23.657Z,23217.50
2022-08-05T10:32:52.053Z,23091.38
2022-08-05T10:34:41.137Z,22920.53
2022-08-05T10:37:09.569Z,22924.59
2022-08-05T10:39:59.236Z,22926.63
2022-08-05T10:42:38.328Z,22920.53
2022-08-05T10:45:23.965Z,23026.28
2022-08-05T10:48:52.831Z,23184.94
2022-08-05T10:51:28.790Z,23248.00
2022-08-05T10:54:01.763Z,23166.63
2022-08-05T10:56:49.283Z,23158.50
2022-08-05T11:00:03.522Z,23225.63
2022-08-05T11:02:14.685Z,23193.09
2022-08-05T11:04:58.687Z,23107.66
2022-08-05T11:07:33.316Z,23085.28
2022-08-05T11:10:27.496Z,23099.50
2022-08-05T11:12:58.334Z,23105.63
2022-08-05T11:15:59.157Z,23097.47
2022-08-05T11:18:30.031Z,23162.56
2022-08-05T11:21:02.568Z,23123.94
2022-08-05T11:24:05.353Z,23081.22
2022-08-05T11:26:28.189Z,23087.31
2022-08-05T11:29:12.867Z,23121.88
2022-08-05T11:31:57.290Z,23066.97
2022-08-05T11:34:47.503Z,23093.41
2022-08-05T11:38:28.116Z,22991.72
2022-08-05T11:41:35.638Z,23036.47
2022-08-05T11:44:06.621Z,23054.75
2022-08-05T11:46:58.143Z,23030.34
2022-08-05T11:49:29.328Z,23056.81
2022-08-05T11:52:08.406Z,23075.09
2022-08-05T11:54:41.415Z,23099.50
2022-08-05T11:57:24.403Z,23071.03
2022-08-05T11:59:54.742Z,23176.81
2022-08-05T12:02:32.976Z,23117.81
2022-08-05T12:05:06.838Z,23176.81
2022-08-05T12:08:10.443Z,23221.56
2022-08-05T12:10:43.092Z,23311.06
2022-08-05T12:13:27.908Z,23321.22
2022-08-05T12:16:15.699Z,23355.81
2022-08-05T12:18:48.928Z,23351.75
2022-08-05T12:21:26.965Z,23331.41
2022-08-05T12:24:04.746Z,23309.03
2022-08-05T12:26:35.582Z,23262.25
2022-08-05T12:29:09.830Z,23203.25
2022-08-05T12:31:49.757Z,23115.78
2022-08-05T12:34:28.136Z,23003.91
2022-08-05T12:36:58.062Z,23032.38
2022-08-05T12:39:37.460Z,22969.34
2022-08-05T12:42:14.945Z,22993.75
2022-08-05T12:44:45.305Z,23036.47
2022-08-05T12:47:25.554Z,23107.66
2022-08-05T12:50:04.464Z,23182.91
2022-08-05T12:52:42.008Z,23353.78
2022-08-05T12:55:26.166Z,23412.78
2022-08-05T12:58:49.933Z,23567.38
2022-08-05T13:02:03.140Z,23660.97
2022-08-05T13:03:42.329Z,23675.19
2022-08-05T13:06:17.834Z,23742.34
2022-08-05T13:08:52.401Z,23805.41
2022-08-05T13:12:01.781Z,23821.69
2022-08-05T13:14:24.870Z,23738.25
2022-08-05T13:17:10.406Z,23783.03
2022-08-05T13:19:51.839Z,23921.38
2022-08-05T13:22:29.201Z,23888.81
2022-08-05T13:25:00.878Z,23827.78
2022-08-05T13:27:38.522Z,23705.72
2022-08-05T13:30:33.536Z,23569.41
2022-08-05T13:33:01.701Z,23506.34
2022-08-05T13:35:47.435Z,23396.50
2022-08-05T13:38:31.076Z,23380.22
2022-08-05T13:41:04.800Z,23355.81
2022-08-05T13:43:45.377Z,23398.53
2022-08-05T13:47:01.658Z,23427.00
2022-08-05T13:49:11.742Z,23707.75
2022-08-05T13:51:46.481Z,23882.72
2022-08-05T13:54:21.198Z,23964.09
2022-08-05T13:56:53.473Z,23994.59
2022-08-05T13:59:25.095Z,23911.19
2022-08-05T14:01:56.559Z,23756.56
2022-08-05T14:04:49.431Z,23787.09
2022-08-05T14:07:25.605Z,23744.38
2022-08-05T14:10:13.205Z,23726.06
2022-08-05T14:12:42.843Z,23697.56
2022-08-05T14:16:04.519Z,23756.56
2022-08-05T14:18:01.290Z,23734.19
2022-08-05T14:20:30.690Z,23717.91
2022-08-05T14:22:59.054Z,23724.03
2022-08-05T14:25:30.077Z,23630.44
2022-08-05T14:27:58.874Z,23677.22
2022-08-05T14:30:28.357Z,23709.78
2022-08-05T14:32:58.657Z,23734.19
2022-08-05T14:35:37.507Z,23742.34
2022-08-05T14:38:27.682Z,23693.50
2022-08-05T14:41:06.149Z,23654.84
2022-08-05T14:44:02.551Z,23685.38
2022-08-05T14:46:27.210Z,23557.22
2022-08-05T14:49:04.195Z,23522.63
2022-08-05T14:51:36.189Z,23510.41
2022-08-05T14:54:27.747Z,23443.28
2022-08-05T14:56:57.049Z,23612.13
2022-08-05T14:59:29.239Z,23738.25
2022-08-05T15:02:03.542Z,23776.91
2022-08-05T15:04:43.772Z,23781.00
2022-08-05T15:08:05.775Z,23758.59
2022-08-05T15:10:01.554Z,23703.69
2022-08-05T15:12:51.391Z,23569.41
2022-08-05T15:15:54.334Z,23542.97
2022-08-05T15:18:08.899Z,23575.50
2022-08-05T15:20:37.050Z,23475.84
2022-08-05T15:23:06.718Z,23341.56
2022-08-05T15:25:40.920Z,23109.69
2022-08-05T15:28:23.023Z,22763.91
2022-08-05T15:30:55.999Z,22611.38
2022-08-05T15:34:04.496Z,22525.94
2022-08-05T15:36:17.357Z,22438.50
2022-08-05T15:40:41.182Z,22318.50
2022-08-05T15:41:55.158Z,22263.59
2022-08-05T15:44:26.110Z,22190.38
2022-08-05T15:46:55.919Z,22233.09
2022-08-05T15:49:55.097Z,22218.84
2022-08-05T15:52:16.302Z,22084.66
2022-08-05T15:54:45.247Z,22050.06
2022-08-05T15:57:14.624Z,22005.34
2022-08-05T15:59:45.676Z,22001.28
2022-08-05T16:02:14.919Z,22015.50
2022-08-05T16:04:54.895Z,21924.00
2022-08-05T16:07:23.099Z,21867.06
2022-08-05T16:09:52.121Z,21791.81
2022-08-05T16:12:22.396Z,21808.09
2022-08-05T16:14:53.008Z,21814.19
2022-08-05T16:17:21.082Z,21773.53
2022-08-05T16:20:11.773Z,21759.28
2022-08-05T16:22:37.321Z,21698.28
2022-08-05T16:25:09.535Z,21627.13
2022-08-05T16:28:00.670Z,21602.72
2022-08-05T16:30:29.370Z,21574.25
2022-08-05T16:32:57.728Z,21523.44
2022-08-05T16:35:28.592Z,21476.66
2022-08-05T16:38:15.096Z,21513.25
2022-08-05T16:40:51.905Z,21472.59
2022-08-05T16:43:24.712Z,21417.69
2022-08-05T16:46:04.578Z,21452.25
2022-08-05T16:48:37.471Z,21429.91
2022-08-05T16:51:09.034Z,21413.63
2022-08-05T16:54:03.296Z,21431.94
2022-08-05T16:56:30.058Z,21417.69
2022-08-05T16:59:01.013Z,21391.28
2022-08-05T17:01:54.109Z,21407.53
2022-08-05T17:04:26.459Z,21423.81
2022-08-05T17:06:57.007Z,21419.72
2022-08-05T17:09:29.914Z,21431.94
2022-08-05T17:11:59.703Z,21419.72
2022-08-05T17:14:37.102Z,21401.44
2022-08-05T17:17:14.184Z,21391.28
2022-08-05T17:19:45.496Z,21395.34
2022-08-05T17:22:24.791Z,21413.63
2022-08-05T17:24:57.730Z,21433.97
2022-08-05T17:27:33.354Z,21436.00
2022-08-05T17:30:07.108Z,21444.13
2022-08-05T17:36:07.998Z,21391.28
2022-08-05T17:38:23.509Z,21372.97
2022-08-05T17:40:51.533Z,21360.78
2022-08-05T17:43:47.138Z,21354.66
2022-08-05T17:46:10.296Z,21358.75
2022-08-05T17:48:39.919Z,21330.28
2022-08-05T17:51:13.251Z,21326.22
2022-08-05T17:53:54.525Z,21332.31
2022-08-05T17:56:23.119Z,21297.75
2022-08-05T17:58:56.744Z,21320.09
2022-08-05T18:01:24.923Z,21303.84
2022-08-05T18:04:03.837Z,21299.78
2022-08-05T18:06:32.906Z,21303.84
2022-08-05T18:09:03.648Z,21293.69
2022-08-05T18:11:33.221Z,21299.78
2022-08-05T18:14:04.258Z,21307.91
2022-08-05T18:16:35.135Z,21265.22
2022-08-05T18:19:16.419Z,21259.13
2022-08-05T18:22:09.645Z,21253.00
2022-08-05T18:24:32.608Z,21232.69
2022-08-05T18:27:01.152Z,21255.03
2022-08-05T18:29:40.482Z,21281.47
2022-08-05T18:32:12.905Z,21261.16
2022-08-05T18:34:43.148Z,21269.28
2022-08-05T18:37:12.578Z,21240.81
2022-08-05T18:40:34.157Z,21261.16
2022-08-05T18:42:47.891Z,21232.69
2022-08-05T18:45:15.981Z,21236.75
2022-08-05T18:47:44.566Z,21210.31
2022-08-05T18:50:44.982Z,21163.56
2022-08-05T18:53:22.859Z,21238.78
2022-08-05T18:55:53.185Z,21145.25
2022-08-05T18:58:28.607Z,21220.47
2022-08-05T19:00:57.464Z,21183.88
2022-08-05T19:03:53.342Z,21194.06
2022-08-05T19:06:22.034Z,21122.91
2022-08-05T19:09:02.343Z,21196.09
2022-08-05T19:11:59.315Z,21157.47
2022-08-05T19:14:44.752Z,21206.25
2022-08-05T19:17:11.381Z,21133.06
2022-08-05T19:19:46.647Z,21159.50
2022-08-05T19:22:18.571Z,21192.03
2022-08-05T19:24:54.298Z,21155.44
2022-08-05T19:27:27.950Z,21194.06
2022-08-05T19:29:58.833Z,21190.00
2022-08-05T19:32:27.821Z,21234.72
2022-08-05T19:34:56.651Z,21165.59
2022-08-05T19:37:35.026Z,21167.63
2022-08-05T19:40:16.468Z,21190.00
2022-08-05T19:43:04.510Z,21232.69
2022-08-05T19:45:36.759Z,21204.22
2022-08-05T19:48:06.470Z,21208.28
2022-08-05T19:50:35.741Z,21220.47
2022-08-05T19:53:09.517Z,21177.78
2022-08-05T19:56:14.916Z,21133.06
2022-08-05T19:58:29.642Z,21114.75
2022-08-05T20:00:58.184Z,21072.06
2022-08-05T20:03:29.266Z,21133.06
2022-08-05T20:06:15.579Z,21065.97
2022-08-05T20:09:06.273Z,21086.31
2022-08-05T20:11:42.377Z,21070.03
2022-08-05T20:14:26.637Z,21063.94
2022-08-05T20:16:55.796Z,21059.88
2022-08-05T20:19:24.712Z,21061.91
2022-08-05T20:22:04.147Z,21047.69
2022-08-05T20:24:34.352Z,21070.03
2022-08-05T20:27:03.299Z,21041.56
2022-08-05T20:29:39.672Z,21070.03
2022-08-05T20:32:08.328Z,21057.84
2022-08-05T20:34:38.532Z,21049.72
2022-08-05T20:37:17.734Z,21013.13
2022-08-05T20:39:53.903Z,21074.09
2022-08-05T20:42:26.735Z,21092.41
2022-08-05T20:44:56.489Z,21108.66
2022-08-05T20:47:31.939Z,21070.03
2022-08-05T20:50:02.117Z,21043.59
2022-08-05T20:52:31.176Z,21011.09
2022-08-05T20:55:55.293Z,21068.00
2022-08-05T20:57:49.642Z,21053.78
2022-08-05T21:00:49.615Z,20931.78
2022-08-05T21:03:08.468Z,20964.31
2022-08-05T21:05:53.551Z,20990.75
2022-08-05T21:08:26.830Z,21053.78
2022-08-05T21:11:09.165Z,21033.44
2022-08-05T21:13:48.229Z,21013.13
2022-08-05T21:16:29.729Z,20996.84
2022-08-05T21:19:00.012Z,20996.84
2022-08-05T21:21:44.328Z,21004.97
2022-08-05T21:24:19.555Z,21033.44
2022-08-05T21:26:58.437Z,20958.22
2022-08-05T21:29:31.961Z,20972.47
2022-08-05T21:32:02.334Z,20944.00
2022-08-05T21:34:31.713Z,20972.47
2022-08-05T21:37:01.589Z,20964.31
2022-08-05T21:39:30.016Z,20944.00
2022-08-05T21:42:01.075Z,20929.75
2022-08-05T21:44:30.183Z,20944.00
2022-08-05T21:46:59.268Z,20970.41
2022-08-05T21:50:00.199Z,20946.03
2022-08-05T21:52:26.787Z,20960.25
2022-08-05T21:54:56.834Z,20964.31
2022-08-05T21:57:33.738Z,20994.81
2022-08-05T22:00:05.546Z,21009.03
2022-08-05T22:02:35.560Z,20988.72
2022-08-05T22:05:04.520Z,21000.91
2022-08-05T22:07:54.154Z,20962.28
2022-08-05T22:10:27.218Z,20964.31
2022-08-05T22:12:57.824Z,20937.91
2022-08-05T22:16:00.595Z,20925.69
2022-08-05T22:18:15.820Z,20911.47
2022-08-05T22:20:47.774Z,20915.53
2022-08-05T22:24:03.330Z,20972.47
2022-08-05T22:26:49.445Z,20980.59
2022-08-05T22:29:26.905Z,20937.91
2022-08-05T22:32:03.196Z,20913.50
2022-08-05T22:34:32.208Z,20868.78
2022-08-05T22:37:01.105Z,20903.34
2022-08-05T22:39:34.333Z,20952.13
2022-08-05T22:42:10.426Z,20919.59
2022-08-05T22:44:48.342Z,20927.72
2022-08-05T22:47:29.326Z,20905.38
2022-08-05T22:50:18.158Z,20905.38
2022-08-05T22:52:49.631Z,20909.44
2022-08-05T22:55:22.072Z,20923.66
2022-08-05T22:57:51.101Z,20948.06
2022-08-05T23:00:23.587Z,20929.75
2022-08-05T23:02:53.429Z,20972.47
2022-08-05T23:05:23.627Z,20944.00
2022-08-05T23:07:53.268Z,20952.13
2022-08-05T23:10:23.546Z,20978.56
2022-08-05T23:12:55.771Z,20968.38
2022-08-05T23:15:29.269Z,20984.66
2022-08-05T23:18:01.572Z,20907.41
2022-08-05T23:20:33.191Z,20915.53
2022-08-05T23:23:03.545Z,20915.53
2022-08-05T23:25:51.178Z,20903.34
2022-08-05T23:28:22.109Z,20911.47
2022-08-05T23:30:54.700Z,20933.81
2022-08-05T23:34:03.345Z,20931.78
2022-08-05T23:36:13.783Z,20915.53
2022-08-05T23:38:43.540Z,20909.44
2022-08-05T23:41:12.797Z,20883.00
2022-08-05T23:44:05.189Z,20878.94
2022-08-05T23:46:31.103Z,20874.88
2022-08-05T23:49:01.912Z,20887.06
2022-08-05T23:52:01.834Z,20874.88
2022-08-05T23:54:36.320Z,20832.19
2022-08-05T23:57:07.325Z,20907.41
